CTY weather

Cross City Airport
Cross City, Florida, United States

Public forecast

Using degrees Fahrenheit for public forecast. Weather courtesy of forecast.io.

Current aviation weather report (METAR) for Cross City Airport

Retrieved 2019/12/10 01:35 UTC (14 minutes ago):

KCTY 100135Z AUTO 00000KT 10SM CLR 18/17 A3010 RMK AO2 T01760167

Closest aviation forecast (TAF) to Cross City Airport

Closest forecast is Gainesville Regional Airport, 43.6 nm (80.7 km) E. Retrieved 2019-12-10 00:45 UTC (1 hour ago):

TAF KGNV 092341Z 1000/1024 19009KT P6SM SCT040 BKN250 FM100400 19002KT 4SM BR BKN005 FM100700 19002KT 1/2SM FG OVC002 FM101400 18008KT P6SM SCT020 SCT250 FM101900 22010KT P6SM BKN050